Hagerstown, MD (21740)

6:40 PM EST on December 07, 2016 (GMT -0500)
Hagerstown West | | Change Station

Elev 617 ft 39.66 °N, 77.74 °W | Updated 3 seconds ago

Clear
Clear
36.3 °F
Feels Like 36 °F
N
0.0
Wind Variable Wind from SSW

Today
High -- | Low -- °F
--% Chance of Precip.
Yesterday
High -- | Low -- °F
Precip. -- in
Pressure 30.05 in
Visibility 10.0 miles
Clouds Clear
Windchill 36 °F
Dew Point 28 °F
Humidity 72%
Rainfall 0.00 in
Snow Depth Not available.
7:18 AM 4:46 PM
First Quarter, 57% visible
METAR KRSP 072254Z AUTO 31005KT 10SM CLR 03/M02 A2999 RMK AO2 SLP175 T00281022 $
Pressure 30.05 in
Visibility 10.0 miles
Clouds Clear
Windchill 36 °F
Dew Point 28 °F
Humidity 72%
Rainfall 0.00 in
Snow Depth Not available.
7:18 AM 4:46 PM
First Quarter, 57% visible
METAR KRSP 072254Z AUTO 31005KT 10SM CLR 03/M02 A2999 RMK AO2 SLP175 T00281022 $

10-Day Weather Forecast

Almanac

Astronomy

Dec. 07, 2016 Rise Set
Actual Time
Civil Twilight
Nautical Twilight
Astronomical Twilight
Moon
Length of Visible Light
Length of Day
Tomorrow will be .
, % of the Moon is Illuminated

Today's Extremes

State Highs State Lows

Community

WunderPhotos

Upload Photos

1,956,219 photos uploaded!

WunderBlog® & News

Nearby

Air Quality

  Air Quality AQ Index Pollutant
Not available.

Snow Depth

Station Depth Elevation

Earthquake Activity

City Distance Mag. Time & Date
Minimum magnitude displayed is 2.5.

Coastal Water Temperatures

Place Temperature

Stations

Nearby Weather Stations

Station Location Temp. Windchill Dew Point Humidity Wind Precip. Elev Updated Type
                   

Watches & Warnings

There are currently no watches in effect.